Time;durP1;ratioP1;P1;durP2;ratioP2;P2;SDS_P1;SDS_P2;PMS_P1;PMS_P2;Temp;Humidity;BMP_temperature;BMP_pressure;BME280_temperature;BME280_humidity;BME280_pressure;Samples;Min_cycle;Max_cycle;Signal;HPM_P1;HPM_P2
2023/03/07 00:00:13;;;;;;;10.82;9.82;;;;;;;;;;4992995;28;20391;-85
2023/03/07 00:02:40;;;;;;;11.23;10.23;;;;;;;;;;4992377;28;20530;-85
2023/03/07 00:05:06;;;;;;;11.77;10.55;;;;;;;;;;4992507;28;20422;-83
2023/03/07 00:07:32;;;;;;;11.63;10.52;;;;;;;;;;4993201;28;20445;-83
2023/03/07 00:09:58;;;;;;;11.80;10.60;;;;;;;;;;4993247;28;20391;-83
2023/03/07 00:12:24;;;;;;;12.02;10.82;;;;;;;;;;4993288;28;20425;-83
2023/03/07 00:14:50;;;;;;;11.52;10.38;;;;;;;;;;4993230;28;20387;-83
2023/03/07 00:17:16;;;;;;;11.63;10.52;;;;;;;;;;4993259;28;20521;-83
2023/03/07 00:19:43;;;;;;;10.65;9.65;;;;;;;;;;4993217;28;20406;-83
2023/03/07 00:22:10;;;;;;;11.48;10.35;;;;;;;;;;4993132;28;20394;-83
2023/03/07 00:24:36;;;;;;;12.52;10.80;;;;;;;;;;4992380;28;20379;-83
2023/03/07 00:27:02;;;;;;;11.23;10.23;;;;;;;;;;4975489;28;20852;-83
2023/03/07 00:29:28;;;;;;;12.23;11.03;;;;;;;;;;4991967;28;20859;-83
2023/03/07 00:31:54;;;;;;;14.18;11.07;;;;;;;;;;4992744;28;20386;-82
2023/03/07 00:34:20;;;;;;;12.60;10.83;;;;;;;;;;4992623;28;20891;-83
2023/03/07 00:36:46;;;;;;;11.98;10.77;;;;;;;;;;4992367;28;20445;-83
2023/03/07 00:39:13;;;;;;;12.10;10.70;;;;;;;;;;4992663;28;20910;-83
2023/03/07 00:41:39;;;;;;;11.37;10.27;;;;;;;;;;4992295;28;20846;-83
2023/03/07 00:44:06;;;;;;;11.93;10.82;;;;;;;;;;4992362;28;20395;-83
2023/03/07 00:46:32;;;;;;;12.80;11.52;;;;;;;;;;4992903;28;20430;-82
2023/03/07 00:48:58;;;;;;;12.00;10.80;;;;;;;;;;4992874;28;20410;-82
2023/03/07 00:51:24;;;;;;;11.90;10.63;;;;;;;;;;4975119;28;20398;-83
2023/03/07 00:53:50;;;;;;;12.20;10.93;;;;;;;;;;4992343;28;20879;-82
2023/03/07 00:56:23;;;;;;;13.10;11.45;;;;;;;;;;4992293;28;20476;-82
2023/03/07 00:58:49;;;;;;;12.23;10.90;;;;;;;;;;4992364;28;20394;-85
2023/03/07 01:01:17;;;;;;;12.55;10.88;;;;;;;;;;4992258;28;20386;-83
2023/03/07 01:03:43;;;;;;;12.33;11.13;;;;;;;;;;4992342;28;20405;-83
2023/03/07 01:06:12;;;;;;;12.57;11.27;;;;;;;;;;4992397;28;20398;-83
2023/03/07 01:08:38;;;;;;;12.80;11.52;;;;;;;;;;4974368;28;20406;-85
2023/03/07 01:11:05;;;;;;;12.48;11.18;;;;;;;;;;4992364;28;20394;-85
2023/03/07 01:13:31;;;;;;;13.00;11.60;;;;;;;;;;4992507;28;20387;-85
2023/03/07 01:16:12;;;;;;;13.00;11.65;;;;;;;;;;4992488;28;20418;-84
2023/03/07 01:18:39;;;;;;;12.93;11.63;;;;;;;;;;4974777;28;20403;-85
2023/03/07 01:21:12;;;;;;;12.80;11.60;;;;;;;;;;4991971;28;20902;-82
2023/03/07 01:23:38;;;;;;;12.30;11.00;;;;;;;;;;4992063;28;20398;-82
2023/03/07 01:26:04;;;;;;;12.63;11.33;;;;;;;;;;4991891;28;20374;-83
2023/03/07 01:28:30;;;;;;;13.05;11.48;;;;;;;;;;4992151;28;20421;-83
2023/03/07 01:30:57;;;;;;;12.20;10.95;;;;;;;;;;4991624;28;20398;-82
2023/03/07 01:33:23;;;;;;;12.32;11.13;;;;;;;;;;4991864;28;20477;-85
2023/03/07 01:35:49;;;;;;;13.00;11.60;;;;;;;;;;4991910;28;20509;-83
2023/03/07 01:38:15;;;;;;;12.52;11.32;;;;;;;;;;4992037;28;20391;-84
2023/03/07 01:40:41;;;;;;;12.10;10.90;;;;;;;;;;4989949;28;20406;-83
2023/03/07 01:43:22;;;;;;;11.38;10.25;;;;;;;;;;4992179;28;20437;-83
2023/03/07 01:45:48;;;;;;;12.50;11.18;;;;;;;;;;4991619;28;20483;-83
2023/03/07 01:48:14;;;;;;;12.73;11.48;;;;;;;;;;4991646;28;20776;-83
2023/03/07 01:50:40;;;;;;;12.43;11.25;;;;;;;;;;4974032;28;20880;-83
2023/03/07 01:53:07;;;;;;;12.70;11.40;;;;;;;;;;4993634;28;20426;-83
2023/03/07 01:55:34;;;;;;;12.73;11.43;;;;;;;;;;4995737;28;20488;-83
2023/03/07 01:58:03;;;;;;;13.57;11.18;;;;;;;;;;4995343;28;20398;-83
2023/03/07 02:00:29;;;;;;;13.15;11.85;;;;;;;;;;4977865;28;20798;-84
2023/03/07 02:03:01;;;;;;;12.82;11.52;;;;;;;;;;4995859;28;20811;-83
2023/03/07 02:05:31;;;;;;;13.70;12.23;;;;;;;;;;4978210;28;20551;-83
2023/03/07 02:07:59;;;;;;;13.23;11.82;;;;;;;;;;4978028;28;20432;-83
2023/03/07 02:10:25;;;;;;;12.32;11.02;;;;;;;;;;4977416;28;20475;-83
2023/03/07 02:12:52;;;;;;;12.88;11.40;;;;;;;;;;4995331;28;20398;-83
2023/03/07 02:15:19;;;;;;;12.75;11.55;;;;;;;;;;4995127;28;20422;-84
2023/03/07 02:17:45;;;;;;;12.93;11.63;;;;;;;;;;4995407;28;20545;-83
2023/03/07 02:20:14;;;;;;;12.82;11.48;;;;;;;;;;4977574;28;20950;-83
2023/03/07 02:22:40;;;;;;;12.52;11.23;;;;;;;;;;4995278;28;20424;-84
2023/03/07 02:25:12;;;;;;;12.60;11.40;;;;;;;;;;4995273;28;20391;-83
2023/03/07 02:27:38;;;;;;;12.60;11.30;;;;;;;;;;4977043;28;20497;-83
2023/03/07 02:30:05;;;;;;;11.50;10.40;;;;;;;;;;4995341;28;20387;-83
2023/03/07 02:32:31;;;;;;;12.68;11.18;;;;;;;;;;4994915;28;20437;-83
2023/03/07 02:34:57;;;;;;;12.13;10.93;;;;;;;;;;4994897;28;20409;-84
2023/03/07 02:37:26;;;;;;;12.10;10.80;;;;;;;;;;4982470;28;20406;-83
2023/03/07 02:39:52;;;;;;;11.70;10.52;;;;;;;;;;4998842;28;20513;-83
2023/03/07 02:42:28;;;;;;;11.13;10.10;;;;;;;;;;4980564;28;20387;-83
2023/03/07 02:44:56;;;;;;;11.52;10.38;;;;;;;;;;4979240;28;20887;-83
2023/03/07 02:47:22;;;;;;;11.70;10.52;;;;;;;;;;4985520;28;20413;-83
2023/03/07 02:49:48;;;;;;;12.05;10.85;;;;;;;;;;4981145;28;20412;-83
2023/03/07 02:52:14;;;;;;;11.77;10.60;;;;;;;;;;4984691;28;20747;-83
2023/03/07 02:54:40;;;;;;;12.70;10.88;;;;;;;;;;4993356;28;20391;-82
2023/03/07 02:57:06;;;;;;;12.00;10.90;;;;;;;;;;4994800;28;20426;-83
2023/03/07 02:59:32;;;;;;;12.10;10.80;;;;;;;;;;4994857;28;20382;-84
2023/03/07 03:01:58;;;;;;;11.73;10.40;;;;;;;;;;4994196;28;20481;-83
2023/03/07 03:04:24;;;;;;;11.38;10.27;;;;;;;;;;4993960;28;20516;-83
2023/03/07 03:06:50;;;;;;;11.35;10.25;;;;;;;;;;4994323;28;20382;-83
2023/03/07 03:09:16;;;;;;;11.35;10.15;;;;;;;;;;4994304;28;20391;-83
2023/03/07 03:11:42;;;;;;;10.63;9.57;;;;;;;;;;4994186;28;20382;-84
2023/03/07 03:14:08;;;;;;;11.00;10.00;;;;;;;;;;4993946;28;20398;-83
2023/03/07 03:16:34;;;;;;;10.70;9.70;;;;;;;;;;4994174;28;20425;-83
2023/03/07 03:19:00;;;;;;;10.70;9.60;;;;;;;;;;4994260;28;20393;-83
2023/03/07 03:21:26;;;;;;;11.02;9.88;;;;;;;;;;4994211;28;20389;-83
2023/03/07 03:23:52;;;;;;;10.97;9.97;;;;;;;;;;4994324;28;20383;-84
2023/03/07 03:26:18;;;;;;;11.18;10.02;;;;;;;;;;4994366;28;20880;-83
2023/03/07 03:28:44;;;;;;;10.93;9.93;;;;;;;;;;4994280;28;20390;-83
2023/03/07 03:31:13;;;;;;;10.70;9.60;;;;;;;;;;4993801;28;20401;-84
2023/03/07 03:33:40;;;;;;;10.75;9.73;;;;;;;;;;4993676;28;20421;-83
2023/03/07 03:36:07;;;;;;;11.37;10.17;;;;;;;;;;4993640;28;20488;-84
2023/03/07 03:38:33;;;;;;;10.67;9.60;;;;;;;;;;4993739;28;20500;-83
2023/03/07 03:41:02;;;;;;;10.88;9.77;;;;;;;;;;4993669;28;20879;-83
2023/03/07 03:43:28;;;;;;;11.52;10.32;;;;;;;;;;4993800;28;20847;-84
2023/03/07 03:45:55;;;;;;;11.20;10.20;;;;;;;;;;4976046;28;20422;-83
2023/03/07 03:48:21;;;;;;;11.00;9.90;;;;;;;;;;4993735;28;20426;-83
2023/03/07 03:50:47;;;;;;;11.07;10.02;;;;;;;;;;4993712;28;20421;-84
2023/03/07 03:53:13;;;;;;;10.93;9.82;;;;;;;;;;4993705;28;20399;-83
2023/03/07 03:55:39;;;;;;;12.05;10.80;;;;;;;;;;4993713;28;20787;-83
2023/03/07 03:58:05;;;;;;;11.82;10.73;;;;;;;;;;4976381;28;20486;-84
2023/03/07 04:00:31;;;;;;;11.80;10.70;;;;;;;;;;4993116;28;20476;-83
2023/03/07 04:02:57;;;;;;;12.02;10.77;;;;;;;;;;4991835;28;20389;-84
2023/03/07 04:05:22;;;;;;;13.13;11.27;;;;;;;;;;4992251;28;20425;-84
2023/03/07 04:07:49;;;;;;;12.82;11.38;;;;;;;;;;4991421;28;20468;-84
2023/03/07 04:10:15;;;;;;;12.02;10.82;;;;;;;;;;4991531;28;20389;-84
2023/03/07 04:12:41;;;;;;;13.13;11.50;;;;;;;;;;4991803;28;20438;-84
2023/03/07 04:15:08;;;;;;;12.45;11.15;;;;;;;;;;4973799;28;20401;-84
2023/03/07 04:17:34;;;;;;;12.35;10.95;;;;;;;;;;4991351;28;20403;-84
2023/03/07 04:20:00;;;;;;;11.68;10.35;;;;;;;;;;4991246;28;21189;-84
2023/03/07 04:22:26;;;;;;;11.75;10.65;;;;;;;;;;4991662;28;20402;-85
2023/03/07 04:24:52;;;;;;;12.70;11.38;;;;;;;;;;4973942;28;20485;-85
2023/03/07 04:27:18;;;;;;;13.40;12.00;;;;;;;;;;4991029;28;20477;-85
2023/03/07 04:29:44;;;;;;;12.43;11.23;;;;;;;;;;4973556;28;20383;-85
2023/03/07 04:32:10;;;;;;;12.90;11.57;;;;;;;;;;4990159;28;20441;-83
2023/03/07 04:34:36;;;;;;;13.55;12.13;;;;;;;;;;4990119;28;20414;-83
2023/03/07 04:37:02;;;;;;;13.07;11.68;;;;;;;;;;4990643;28;20520;-83
2023/03/07 04:39:30;;;;;;;13.68;12.18;;;;;;;;;;4990257;28;20831;-82
2023/03/07 04:41:56;;;;;;;14.18;12.50;;;;;;;;;;4990799;28;20430;-83
2023/03/07 04:44:22;;;;;;;13.18;11.88;;;;;;;;;;4990964;28;20789;-83
2023/03/07 04:46:48;;;;;;;12.50;11.23;;;;;;;;;;4990817;28;20399;-83
2023/03/07 04:49:14;;;;;;;13.00;11.65;;;;;;;;;;4990645;28;20397;-84
2023/03/07 04:51:40;;;;;;;12.90;11.55;;;;;;;;;;4990744;28;20390;-83
2023/03/07 04:54:06;;;;;;;13.25;11.85;;;;;;;;;;4991014;28;20386;-84
2023/03/07 04:56:32;;;;;;;13.20;11.80;;;;;;;;;;4981996;28;20425;-83
2023/03/07 04:58:58;;;;;;;12.27;11.07;;;;;;;;;;4974667;28;20904;-83
2023/03/07 05:01:24;;;;;;;13.73;11.75;;;;;;;;;;4971528;28;20392;-83
2023/03/07 05:03:50;;;;;;;12.82;11.43;;;;;;;;;;4971331;28;20491;-84
2023/03/07 05:06:16;;;;;;;12.98;11.38;;;;;;;;;;4983833;28;20390;-83
2023/03/07 05:08:42;;;;;;;12.63;11.32;;;;;;;;;;4990377;28;20441;-83
2023/03/07 05:11:08;;;;;;;12.83;11.63;;;;;;;;;;4980830;28;20833;-83
2023/03/07 05:13:34;;;;;;;13.10;11.65;;;;;;;;;;4985376;28;20394;-83
2023/03/07 05:16:00;;;;;;;12.80;11.50;;;;;;;;;;4972005;28;20432;-83
2023/03/07 05:18:27;;;;;;;12.35;11.15;;;;;;;;;;4986555;28;20387;-83
2023/03/07 05:20:53;;;;;;;12.63;11.30;;;;;;;;;;4976287;28;20404;-83
2023/03/07 05:23:19;;;;;;;12.18;10.95;;;;;;;;;;4983289;28;20411;-83
2023/03/07 05:25:48;;;;;;;13.40;11.27;;;;;;;;;;4992433;28;20394;-82
2023/03/07 05:28:15;;;;;;;12.95;11.73;;;;;;;;;;4992109;28;20400;-82
2023/03/07 05:30:42;;;;;;;13.15;11.70;;;;;;;;;;4989418;28;20481;-82
2023/03/07 05:33:08;;;;;;;12.45;11.25;;;;;;;;;;4989915;28;20387;-82
2023/03/07 05:35:33;;;;;;;12.50;11.20;;;;;;;;;;4991458;28;20512;-82
2023/03/07 05:38:00;;;;;;;12.30;11.00;;;;;;;;;;4991438;28;20386;-82
2023/03/07 05:40:26;;;;;;;12.20;10.90;;;;;;;;;;4991792;28;20393;-82
2023/03/07 05:42:52;;;;;;;13.05;11.70;;;;;;;;;;4991909;28;20386;-82
2023/03/07 05:45:19;;;;;;;12.13;10.90;;;;;;;;;;4988126;28;20441;-82
2023/03/07 05:47:45;;;;;;;12.27;11.10;;;;;;;;;;4991964;28;20513;-82
2023/03/07 05:50:12;;;;;;;12.88;11.45;;;;;;;;;;4992010;28;20470;-82
2023/03/07 05:52:39;;;;;;;12.95;11.55;;;;;;;;;;4992023;28;20405;-82
2023/03/07 05:55:05;;;;;;;14.13;10.93;;;;;;;;;;4991993;28;20397;-82
2023/03/07 05:57:31;;;;;;;12.95;11.20;;;;;;;;;;4992130;28;20430;-82
2023/03/07 05:59:57;;;;;;;15.57;11.10;;;;;;;;;;4991494;28;20391;-81
2023/03/07 06:02:23;;;;;;;12.93;11.05;;;;;;;;;;4992119;28;20422;-80
2023/03/07 06:04:49;;;;;;;11.90;10.68;;;;;;;;;;4991711;28;20391;-81
2023/03/07 06:07:15;;;;;;;11.63;10.43;;;;;;;;;;4991749;28;20482;-81
2023/03/07 06:09:41;;;;;;;12.15;11.02;;;;;;;;;;4991921;28;20441;-80
2023/03/07 06:12:07;;;;;;;11.38;10.27;;;;;;;;;;4991625;28;20885;-80
2023/03/07 06:14:33;;;;;;;12.07;10.98;;;;;;;;;;4991775;28;20398;-80
2023/03/07 06:17:01;;;;;;;11.93;10.63;;;;;;;;;;4991690;28;20413;-80
2023/03/07 06:19:27;;;;;;;11.93;10.65;;;;;;;;;;4994225;28;20387;-80
2023/03/07 06:21:53;;;;;;;11.48;10.27;;;;;;;;;;4992022;28;20402;-80
2023/03/07 06:24:19;;;;;;;10.80;9.90;;;;;;;;;;4991746;28;20788;-80
2023/03/07 06:26:45;;;;;;;11.43;10.27;;;;;;;;;;4991760;28;20405;-80
2023/03/07 06:29:11;;;;;;;11.50;10.40;;;;;;;;;;4991220;28;20418;-80
2023/03/07 06:31:37;;;;;;;11.52;10.43;;;;;;;;;;4991253;28;20733;-80
2023/03/07 06:34:03;;;;;;;12.00;10.85;;;;;;;;;;4991345;28;20398;-80
2023/03/07 06:36:29;;;;;;;11.50;10.40;;;;;;;;;;4973452;28;20430;-80
2023/03/07 06:38:55;;;;;;;11.15;10.07;;;;;;;;;;4992305;28;20391;-80
2023/03/07 06:41:20;;;;;;;11.13;10.02;;;;;;;;;;4994293;28;20390;-80
2023/03/07 06:43:50;;;;;;;11.27;10.17;;;;;;;;;;5001312;28;20797;-79
2023/03/07 06:46:17;;;;;;;11.30;10.07;;;;;;;;;;4996546;28;20383;-80
2023/03/07 06:48:43;;;;;;;10.77;9.77;;;;;;;;;;4994191;28;20390;-79
2023/03/07 06:51:09;;;;;;;11.48;10.38;;;;;;;;;;4994220;28;20390;-79
2023/03/07 06:53:35;;;;;;;10.90;9.85;;;;;;;;;;4994828;28;20418;-81
2023/03/07 06:56:01;;;;;;;12.27;10.13;;;;;;;;;;4994073;28;20461;-79
2023/03/07 06:58:27;;;;;;;11.77;10.57;;;;;;;;;;4994109;28;20497;-81
2023/03/07 07:00:53;;;;;;;11.80;10.60;;;;;;;;;;4993453;28;20395;-79
2023/03/07 07:03:20;;;;;;;10.75;9.65;;;;;;;;;;4994063;28;20402;-79
2023/03/07 07:05:46;;;;;;;10.27;9.23;;;;;;;;;;4993873;28;20466;-79
2023/03/07 07:08:12;;;;;;;12.25;11.05;;;;;;;;;;4994191;28;20414;-79
2023/03/07 07:10:38;;;;;;;11.13;9.95;;;;;;;;;;4992537;28;20394;-80
2023/03/07 07:13:04;;;;;;;10.90;9.85;;;;;;;;;;4994342;28;20482;-80
2023/03/07 07:15:31;;;;;;;10.90;9.70;;;;;;;;;;4993899;28;20425;-82
2023/03/07 07:17:57;;;;;;;10.75;9.75;;;;;;;;;;4994933;28;20395;-80
2023/03/07 07:20:23;;;;;;;11.52;10.32;;;;;;;;;;4993932;28;20472;-81
2023/03/07 07:22:49;;;;;;;11.15;10.02;;;;;;;;;;4994111;28;20390;-80
2023/03/07 07:25:15;;;;;;;11.02;10.00;;;;;;;;;;4993861;28;20394;-81
2023/03/07 07:27:41;;;;;;;11.48;10.27;;;;;;;;;;4993818;28;20796;-80
2023/03/07 07:30:07;;;;;;;10.95;9.85;;;;;;;;;;4993413;28;20397;-81
2023/03/07 07:32:33;;;;;;;10.90;9.90;;;;;;;;;;4993604;28;20386;-80
2023/03/07 07:34:59;;;;;;;11.38;9.85;;;;;;;;;;4992439;28;20409;-81
2023/03/07 07:37:25;;;;;;;10.70;9.65;;;;;;;;;;4992507;28;20787;-81
2023/03/07 07:39:51;;;;;;;10.18;9.27;;;;;;;;;;4993676;28;20390;-81
2023/03/07 07:42:17;;;;;;;9.57;8.77;;;;;;;;;;4993761;28;20383;-83
2023/03/07 07:44:45;;;;;;;10.07;9.18;;;;;;;;;;4993951;28;20401;-83
2023/03/07 07:47:11;;;;;;;11.00;9.95;;;;;;;;;;4993846;28;20853;-82
2023/03/07 07:49:37;;;;;;;10.07;9.07;;;;;;;;;;4993024;28;20478;-84
2023/03/07 07:52:03;;;;;;;9.75;8.73;;;;;;;;;;4993475;28;20390;-82
2023/03/07 07:54:29;;;;;;;10.02;9.05;;;;;;;;;;4993849;28;20425;-82
2023/03/07 07:56:57;;;;;;;10.02;9.10;;;;;;;;;;4993088;28;20418;-81
2023/03/07 07:59:23;;;;;;;10.48;9.38;;;;;;;;;;4993352;28;20394;-80
2023/03/07 08:01:49;;;;;;;9.88;8.98;;;;;;;;;;4993045;28;20391;-80
2023/03/07 08:04:15;;;;;;;9.65;8.75;;;;;;;;;;4993356;28;20436;-80
2023/03/07 08:06:43;;;;;;;9.63;8.63;;;;;;;;;;4993180;28;20436;-80
2023/03/07 08:09:09;;;;;;;10.20;9.20;;;;;;;;;;4993258;28;20751;-80
2023/03/07 08:11:35;;;;;;;9.10;8.20;;;;;;;;;;4975372;28;20749;-81
2023/03/07 08:14:01;;;;;;;9.70;8.40;;;;;;;;;;4993212;28;20405;-81
2023/03/07 08:16:28;;;;;;;9.40;8.40;;;;;;;;;;4993141;28;20527;-81
2023/03/07 08:18:55;;;;;;;9.18;8.27;;;;;;;;;;4993321;28;20521;-82
2023/03/07 08:21:21;;;;;;;9.60;8.40;;;;;;;;;;4993230;28;20390;-81
2023/03/07 08:23:47;;;;;;;9.50;8.57;;;;;;;;;;4993178;28;20507;-81
2023/03/07 08:26:13;;;;;;;10.07;8.95;;;;;;;;;;4992650;28;20402;-81
2023/03/07 08:28:39;;;;;;;17.27;9.60;;;;;;;;;;4991035;28;20469;-81
2023/03/07 08:31:06;;;;;;;10.80;8.82;;;;;;;;;;4990766;28;20493;-81
2023/03/07 08:33:32;;;;;;;10.90;8.40;;;;;;;;;;4991765;28;20502;-81
2023/03/07 08:35:59;;;;;;;10.45;8.35;;;;;;;;;;4992027;28;20505;-81
2023/03/07 08:38:25;;;;;;;9.27;8.38;;;;;;;;;;4992311;28;20398;-81
2023/03/07 08:40:51;;;;;;;9.23;8.32;;;;;;;;;;4992445;28;20390;-80
2023/03/07 08:43:17;;;;;;;8.60;7.80;;;;;;;;;;4992637;28;20445;-81
2023/03/07 08:45:43;;;;;;;9.27;8.27;;;;;;;;;;4992600;28;20390;-81
2023/03/07 08:48:09;;;;;;;9.13;7.75;;;;;;;;;;4992148;28;20390;-81
2023/03/07 08:50:36;;;;;;;10.23;8.40;;;;;;;;;;4992156;28;20425;-81
2023/03/07 08:53:02;;;;;;;9.50;8.52;;;;;;;;;;4992607;28;20400;-81
2023/03/07 08:55:28;;;;;;;9.18;8.18;;;;;;;;;;4992124;28;20509;-81
2023/03/07 08:57:54;;;;;;;9.07;8.18;;;;;;;;;;4992214;28;20481;-81
2023/03/07 09:00:20;;;;;;;8.63;7.72;;;;;;;;;;4992281;28;20405;-81
2023/03/07 09:02:47;;;;;;;9.95;8.93;;;;;;;;;;4991402;28;20398;-81
2023/03/07 09:05:13;;;;;;;9.17;8.27;;;;;;;;;;4992220;28;20422;-81
2023/03/07 09:07:39;;;;;;;9.52;8.63;;;;;;;;;;4991963;28;20429;-81
2023/03/07 09:10:05;;;;;;;9.48;8.55;;;;;;;;;;4991878;28;20804;-80
2023/03/07 09:12:32;;;;;;;9.90;8.88;;;;;;;;;;4992284;28;20507;-81
2023/03/07 09:14:58;;;;;;;9.25;8.30;;;;;;;;;;4992250;28;20937;-81
2023/03/07 09:17:24;;;;;;;9.65;8.57;;;;;;;;;;4991921;28;20426;-80
2023/03/07 09:19:50;;;;;;;9.55;8.55;;;;;;;;;;4974523;28;20401;-82
2023/03/07 09:22:16;;;;;;;11.00;9.15;;;;;;;;;;4974703;28;20761;-81
2023/03/07 09:24:42;;;;;;;9.88;8.88;;;;;;;;;;4990765;28;20456;-82
2023/03/07 09:27:10;;;;;;;9.93;8.93;;;;;;;;;;4991165;28;20729;-81
2023/03/07 09:29:36;;;;;;;10.60;9.50;;;;;;;;;;4981973;28;20871;-82
2023/03/07 09:32:02;;;;;;;9.25;8.35;;;;;;;;;;4991551;28;20424;-81
2023/03/07 09:34:28;;;;;;;11.30;10.18;;;;;;;;;;4990933;28;20529;-81
2023/03/07 09:36:54;;;;;;;9.52;8.63;;;;;;;;;;4992711;28;20422;-82
2023/03/07 09:39:20;;;;;;;9.18;8.27;;;;;;;;;;4975206;28;20410;-82
2023/03/07 09:41:46;;;;;;;10.55;8.65;;;;;;;;;;4990907;28;20390;-81
2023/03/07 09:44:18;;;;;;;9.47;8.43;;;;;;;;;;4992026;28;20852;-82
2023/03/07 09:46:51;;;;;;;9.60;8.70;;;;;;;;;;4992194;28;20456;-81
2023/03/07 09:49:23;;;;;;;9.13;8.32;;;;;;;;;;4974682;28;20423;-82
2023/03/07 09:51:50;;;;;;;9.60;8.70;;;;;;;;;;4991649;28;20962;-82
2023/03/07 09:54:16;;;;;;;9.38;8.48;;;;;;;;;;4991715;28;20394;-82
2023/03/07 09:56:56;;;;;;;9.27;8.38;;;;;;;;;;4991639;28;20422;-81
2023/03/07 09:59:41;;;;;;;10.32;8.75;;;;;;;;;;4991913;28;20455;-82
2023/03/07 10:02:10;;;;;;;12.27;8.90;;;;;;;;;;4991899;28;20484;-81
2023/03/07 10:04:56;;;;;;;9.10;8.30;;;;;;;;;;4991537;28;20424;-82
2023/03/07 10:07:23;;;;;;;9.18;8.27;;;;;;;;;;4977934;28;20402;-82
2023/03/07 10:09:53;;;;;;;9.05;8.25;;;;;;;;;;4991489;28;20828;-81
2023/03/07 10:12:37;;;;;;;9.98;9.07;;;;;;;;;;4991565;28;20382;-82
2023/03/07 10:15:09;;;;;;;9.93;8.32;;;;;;;;;;4994918;28;20386;-82
2023/03/07 10:17:47;;;;;;;9.95;8.85;;;;;;;;;;4995369;28;20880;-82
2023/03/07 10:20:22;;;;;;;15.85;9.25;;;;;;;;;;4995394;28;20439;-82
2023/03/07 10:22:58;;;;;;;15.73;9.67;;;;;;;;;;4995629;28;20551;-81
2023/03/07 10:25:37;;;;;;;12.32;8.73;;;;;;;;;;4995192;28;20382;-82
2023/03/07 10:28:19;;;;;;;11.23;9.38;;;;;;;;;;4995233;28;20391;-82
2023/03/07 10:30:46;;;;;;;10.27;9.00;;;;;;;;;;4994858;28;20378;-82
2023/03/07 10:33:17;;;;;;;13.90;9.52;;;;;;;;;;4994938;28;20430;-82
2023/03/07 10:35:45;;;;;;;10.45;9.32;;;;;;;;;;4995129;28;20418;-81
2023/03/07 10:38:46;;;;;;;10.40;9.30;;;;;;;;;;4994768;28;20402;-82
2023/03/07 10:41:16;;;;;;;10.82;9.68;;;;;;;;;;4923262;29;20393;-82
2023/03/07 10:43:43;;;;;;;11.07;9.93;;;;;;;;;;4981005;28;20432;-85
2023/03/07 10:46:09;;;;;;;13.00;9.10;;;;;;;;;;4994159;28;20394;-84
2023/03/07 10:48:37;;;;;;;11.50;9.43;;;;;;;;;;4991511;28;20548;-83
2023/03/07 10:51:09;;;;;;;9.85;8.80;;;;;;;;;;4991285;28;20747;-85
2023/03/07 10:53:36;;;;;;;11.90;9.43;;;;;;;;;;4994824;28;20473;-83
2023/03/07 10:56:09;;;;;;;11.10;9.48;;;;;;;;;;4989677;28;21185;-84
2023/03/07 10:58:36;;;;;;;10.90;9.20;;;;;;;;;;4994508;28;20402;-84
2023/03/07 11:01:08;;;;;;;10.55;9.45;;;;;;;;;;4997933;28;20509;-84
2023/03/07 11:03:49;;;;;;;10.23;8.98;;;;;;;;;;4994264;28;20494;-85
2023/03/07 11:06:30;;;;;;;10.45;9.35;;;;;;;;;;4995692;28;20851;-85
2023/03/07 11:08:56;;;;;;;10.07;8.98;;;;;;;;;;4994198;28;20438;-84
2023/03/07 11:11:23;;;;;;;9.85;8.32;;;;;;;;;;4994377;28;20395;-85
2023/03/07 11:14:09;;;;;;;10.75;9.13;;;;;;;;;;4993251;28;20893;-87
2023/03/07 11:16:42;;;;;;;10.00;9.00;;;;;;;;;;4991611;28;20780;-85
2023/03/07 11:19:25;;;;;;;9.07;8.20;;;;;;;;;;4992340;28;20402;-85
2023/03/07 11:21:53;;;;;;;10.40;9.30;;;;;;;;;;4993368;28;20457;-86
2023/03/07 11:24:25;;;;;;;10.35;9.27;;;;;;;;;;4992051;28;20378;-89
2023/03/07 11:26:58;;;;;;;10.63;9.60;;;;;;;;;;4993403;28;20386;-85
2023/03/07 11:29:24;;;;;;;10.43;8.95;;;;;;;;;;4993453;28;20433;-86
2023/03/07 11:32:09;;;;;;;10.05;9.15;;;;;;;;;;4993850;28;20441;-86
2023/03/07 11:34:46;;;;;;;10.13;9.10;;;;;;;;;;4993975;28;20429;-85
2023/03/07 11:37:15;;;;;;;10.93;8.73;;;;;;;;;;4991783;28;20414;-86
2023/03/07 11:39:47;;;;;;;10.20;8.98;;;;;;;;;;4992619;28;20390;-85
2023/03/07 11:42:21;;;;;;;9.98;8.98;;;;;;;;;;4993394;28;20930;-86
2023/03/07 11:45:17;;;;;;;10.27;9.32;;;;;;;;;;4993781;28;20392;-84
2023/03/07 11:47:50;;;;;;;10.35;9.20;;;;;;;;;;4973794;28;20512;-82
2023/03/07 11:50:23;;;;;;;9.10;8.20;;;;;;;;;;4992543;28;20390;-82
2023/03/07 11:53:08;;;;;;;9.93;9.02;;;;;;;;;;4986044;28;20808;-83
2023/03/07 11:55:37;;;;;;;9.63;8.63;;;;;;;;;;4991611;28;20422;-83
2023/03/07 11:58:21;;;;;;;10.87;9.87;;;;;;;;;;4975109;28;20399;-85
2023/03/07 12:01:06;;;;;;;12.15;8.95;;;;;;;;;;4993336;28;20393;-86
2023/03/07 12:03:41;;;;;;;14.20;9.35;;;;;;;;;;4993267;28;20453;-87
2023/03/07 12:06:10;;;;;;;10.98;9.70;;;;;;;;;;4974076;28;20845;-86
2023/03/07 12:08:51;;;;;;;9.63;8.77;;;;;;;;;;4991451;28;20477;-87
2023/03/07 12:11:23;;;;;;;10.85;9.48;;;;;;;;;;4991403;28;20904;-86
2023/03/07 12:14:05;;;;;;;9.85;8.80;;;;;;;;;;4975402;28;20391;-86
2023/03/07 12:16:40;;;;;;;11.30;9.80;;;;;;;;;;4991742;28;20895;-85
2023/03/07 12:19:06;;;;;;;9.93;8.93;;;;;;;;;;4988348;28;20448;-85
2023/03/07 12:21:52;;;;;;;11.95;8.57;;;;;;;;;;4991557;28;20942;-86
2023/03/07 12:24:22;;;;;;;11.47;9.50;;;;;;;;;;4981132;28;20865;-85
2023/03/07 12:27:05;;;;;;;12.80;10.05;;;;;;;;;;4991720;28;20398;-85
2023/03/07 12:29:34;;;;;;;10.68;9.57;;;;;;;;;;4990450;28;20910;-85
2023/03/07 12:32:02;;;;;;;11.00;9.73;;;;;;;;;;4991388;28;20386;-84
2023/03/07 12:34:33;;;;;;;11.07;9.77;;;;;;;;;;4973737;28;20572;-85
2023/03/07 12:37:05;;;;;;;10.53;9.53;;;;;;;;;;4975163;28;20473;-86
2023/03/07 12:39:52;;;;;;;10.35;9.30;;;;;;;;;;4991244;28;20401;-86
2023/03/07 12:42:36;;;;;;;10.60;9.60;;;;;;;;;;4991101;28;20398;-85
2023/03/07 12:45:05;;;;;;;10.65;9.57;;;;;;;;;;4990365;28;20457;-85
2023/03/07 12:47:34;;;;;;;10.23;9.20;;;;;;;;;;4973222;28;20417;-85
2023/03/07 12:50:22;;;;;;;10.55;9.65;;;;;;;;;;4973580;28;20879;-85
2023/03/07 12:52:53;;;;;;;10.32;9.32;;;;;;;;;;4991288;28;20875;-87
2023/03/07 12:55:25;;;;;;;9.90;8.90;;;;;;;;;;4991440;28;20394;-87
2023/03/07 12:58:14;;;;;;;10.18;9.18;;;;;;;;;;4992117;28;20453;-89
2023/03/07 13:00:43;;;;;;;10.77;9.68;;;;;;;;;;4993726;28;20449;-83
2023/03/07 13:03:11;;;;;;;11.57;10.38;;;;;;;;;;4994128;28;20433;-84
2023/03/07 13:05:38;;;;;;;12.10;9.50;;;;;;;;;;4992024;28;20397;-84
2023/03/07 13:08:06;;;;;;;10.45;9.38;;;;;;;;;;4992805;28;20392;-85
2023/03/07 13:10:32;;;;;;;10.80;9.80;;;;;;;;;;4992754;28;20382;-84
2023/03/07 13:12:58;;;;;;;12.13;10.57;;;;;;;;;;4992603;28;20399;-85
2023/03/07 13:15:26;;;;;;;10.75;9.65;;;;;;;;;;4992553;28;20894;-85
2023/03/07 13:17:55;;;;;;;13.00;10.52;;;;;;;;;;4992232;28;20473;-86
2023/03/07 13:20:27;;;;;;;10.93;9.82;;;;;;;;;;4974033;28;20860;-86
2023/03/07 13:22:53;;;;;;;11.23;9.43;;;;;;;;;;4992621;28;20476;-86
2023/03/07 13:25:20;;;;;;;10.75;9.40;;;;;;;;;;4992070;28;20867;-86
2023/03/07 13:27:50;;;;;;;10.10;9.10;;;;;;;;;;4992550;28;20382;-85
2023/03/07 13:30:23;;;;;;;10.70;9.70;;;;;;;;;;4991842;28;20391;-87
2023/03/07 13:32:55;;;;;;;11.00;9.43;;;;;;;;;;4992159;28;20918;-86
2023/03/07 13:35:23;;;;;;;10.95;9.95;;;;;;;;;;4991881;28;20399;-86
2023/03/07 13:37:49;;;;;;;10.70;9.60;;;;;;;;;;4991083;28;20454;-85
2023/03/07 13:40:34;;;;;;;12.20;9.88;;;;;;;;;;4990984;28;20781;-85
2023/03/07 13:43:00;;;;;;;10.77;9.65;;;;;;;;;;4992361;28;20474;-86
2023/03/07 13:45:38;;;;;;;10.70;9.20;;;;;;;;;;4992307;28;20394;-86
2023/03/07 13:48:10;;;;;;;10.57;9.57;;;;;;;;;;4993592;28;20390;-86
2023/03/07 13:50:36;;;;;;;10.75;9.65;;;;;;;;;;4995839;28;20386;-87
2023/03/07 13:53:03;;;;;;;11.23;9.63;;;;;;;;;;4995957;28;20488;-84
2023/03/07 13:55:32;;;;;;;11.00;9.80;;;;;;;;;;4995890;28;20509;-86
2023/03/07 13:58:04;;;;;;;10.88;9.77;;;;;;;;;;4995668;28;20429;-88
2023/03/07 14:00:32;;;;;;;11.02;9.63;;;;;;;;;;4995869;28;20387;-87
2023/03/07 14:02:58;;;;;;;10.88;9.77;;;;;;;;;;4995949;28;20394;-86
2023/03/07 14:05:24;;;;;;;10.68;9.75;;;;;;;;;;4995986;28;20731;-86
2023/03/07 14:07:51;;;;;;;10.63;9.63;;;;;;;;;;4995414;28;20469;-86
2023/03/07 14:10:26;;;;;;;10.60;9.50;;;;;;;;;;4995926;28;20416;-85
2023/03/07 14:13:04;;;;;;;10.68;9.68;;;;;;;;;;4995404;28;20840;-85
2023/03/07 14:15:31;;;;;;;10.85;9.68;;;;;;;;;;4995930;28;20385;-87
2023/03/07 14:18:03;;;;;;;11.27;10.18;;;;;;;;;;4995383;28;20400;-85
2023/03/07 14:20:40;;;;;;;11.27;9.32;;;;;;;;;;4995415;28;20390;-86
2023/03/07 14:23:16;;;;;;;11.13;10.02;;;;;;;;;;4995509;28;20390;-85
2023/03/07 14:25:54;;;;;;;12.17;9.90;;;;;;;;;;4995527;28;20390;-87
2023/03/07 14:28:25;;;;;;;11.35;10.23;;;;;;;;;;4994578;28;20457;-83
2023/03/07 14:30:57;;;;;;;11.57;10.05;;;;;;;;;;4993486;28;20816;-86
2023/03/07 14:33:29;;;;;;;11.85;10.15;;;;;;;;;;4995067;28;20394;-84